sensor_id;sensor_type;location;lat;lon;timestamp;temperature;humidity
67054;SHT31;53960;51.826;5.850;2024-02-26T00:01:48;6.79;88.83
67054;SHT31;53960;51.826;5.850;2024-02-26T00:04:13;6.77;88.87
67054;SHT31;53960;51.826;5.850;2024-02-26T00:06:39;6.68;88.98
67054;SHT31;53960;51.826;5.850;2024-02-26T00:09:08;6.69;88.90
67054;SHT31;53960;51.826;5.850;2024-02-26T00:11:34;6.65;89.21
67054;SHT31;53960;51.826;5.850;2024-02-26T00:14:00;6.65;89.18
67054;SHT31;53960;51.826;5.850;2024-02-26T00:16:25;6.66;89.24
67054;SHT31;53960;51.826;5.850;2024-02-26T00:18:50;6.62;89.40
67054;SHT31;53960;51.826;5.850;2024-02-26T00:21:16;6.69;89.12
67054;SHT31;53960;51.826;5.850;2024-02-26T00:23:41;6.71;89.34
67054;SHT31;53960;51.826;5.850;2024-02-26T00:26:07;6.66;89.51
67054;SHT31;53960;51.826;5.850;2024-02-26T00:28:33;6.65;89.54
67054;SHT31;53960;51.826;5.850;2024-02-26T00:30:58;6.65;89.64
67054;SHT31;53960;51.826;5.850;2024-02-26T00:33:23;6.64;89.87
67054;SHT31;53960;51.826;5.850;2024-02-26T00:35:49;6.64;89.89
67054;SHT31;53960;51.826;5.850;2024-02-26T00:38:14;6.62;89.67
67054;SHT31;53960;51.826;5.850;2024-02-26T00:40:40;6.56;89.63
67054;SHT31;53960;51.826;5.850;2024-02-26T00:43:06;6.64;89.59
67054;SHT31;53960;51.826;5.850;2024-02-26T00:45:31;6.69;89.14
67054;SHT31;53960;51.826;5.850;2024-02-26T00:47:57;6.71;89.21
67054;SHT31;53960;51.826;5.850;2024-02-26T00:50:22;6.62;89.49
67054;SHT31;53960;51.826;5.850;2024-02-26T00:52:48;6.61;89.41
67054;SHT31;53960;51.826;5.850;2024-02-26T00:55:13;6.58;89.45
67054;SHT31;53960;51.826;5.850;2024-02-26T00:57:39;6.61;89.66
67054;SHT31;53960;51.826;5.850;2024-02-26T01:00:06;6.61;89.67
67054;SHT31;53960;51.826;5.850;2024-02-26T01:02:34;6.72;89.24
67054;SHT31;53960;51.826;5.850;2024-02-26T01:04:59;6.66;89.39
67054;SHT31;53960;51.826;5.850;2024-02-26T01:07:24;6.62;89.32
67054;SHT31;53960;51.826;5.850;2024-02-26T01:09:50;6.73;89.20
67054;SHT31;53960;51.826;5.850;2024-02-26T01:12:15;6.68;89.10
67054;SHT31;53960;51.826;5.850;2024-02-26T01:14:40;6.64;89.05
67054;SHT31;53960;51.826;5.850;2024-02-26T01:17:06;6.58;89.20
67054;SHT31;53960;51.826;5.850;2024-02-26T01:19:31;6.65;89.12
67054;SHT31;53960;51.826;5.850;2024-02-26T01:21:56;6.64;89.23
67054;SHT31;53960;51.826;5.850;2024-02-26T01:24:22;6.64;89.17
67054;SHT31;53960;51.826;5.850;2024-02-26T01:26:47;6.65;89.23
67054;SHT31;53960;51.826;5.850;2024-02-26T01:29:12;6.66;89.18
67054;SHT31;53960;51.826;5.850;2024-02-26T01:31:38;6.61;89.39
67054;SHT31;53960;51.826;5.850;2024-02-26T01:34:03;6.66;89.10
67054;SHT31;53960;51.826;5.850;2024-02-26T01:36:28;6.66;89.37
67054;SHT31;53960;51.826;5.850;2024-02-26T01:38:53;6.68;89.31
67054;SHT31;53960;51.826;5.850;2024-02-26T01:41:19;6.64;89.47
67054;SHT31;53960;51.826;5.850;2024-02-26T01:43:44;6.64;89.20
67054;SHT31;53960;51.826;5.850;2024-02-26T01:46:13;6.75;88.89
67054;SHT31;53960;51.826;5.850;2024-02-26T01:48:42;6.75;88.84
67054;SHT31;53960;51.826;5.850;2024-02-26T01:51:08;6.76;88.71
67054;SHT31;53960;51.826;5.850;2024-02-26T01:53:35;6.73;88.85
67054;SHT31;53960;51.826;5.850;2024-02-26T01:56:00;6.73;88.99
67054;SHT31;53960;51.826;5.850;2024-02-26T01:58:26;6.66;89.15
67054;SHT31;53960;51.826;5.850;2024-02-26T02:00:51;6.61;89.53
67054;SHT31;53960;51.826;5.850;2024-02-26T02:03:17;6.65;89.35
67054;SHT31;53960;51.826;5.850;2024-02-26T02:05:42;6.61;89.40
67054;SHT31;53960;51.826;5.850;2024-02-26T02:08:10;6.62;89.85
67054;SHT31;53960;51.826;5.850;2024-02-26T02:10:38;6.58;89.79
67054;SHT31;53960;51.826;5.850;2024-02-26T02:13:03;6.52;89.93
67054;SHT31;53960;51.826;5.850;2024-02-26T02:15:28;6.59;89.67
67054;SHT31;53960;51.826;5.850;2024-02-26T02:17:54;6.53;89.76
67054;SHT31;53960;51.826;5.850;2024-02-26T02:20:24;6.50;89.95
67054;SHT31;53960;51.826;5.850;2024-02-26T02:22:49;6.59;89.73
67054;SHT31;53960;51.826;5.850;2024-02-26T02:25:14;6.50;90.14
67054;SHT31;53960;51.826;5.850;2024-02-26T02:27:41;6.48;90.32
67054;SHT31;53960;51.826;5.850;2024-02-26T02:30:07;6.50;90.50
67054;SHT31;53960;51.826;5.850;2024-02-26T02:32:33;6.50;90.37
67054;SHT31;53960;51.826;5.850;2024-02-26T02:34:59;6.58;90.00
67054;SHT31;53960;51.826;5.850;2024-02-26T02:37:24;6.62;89.99
67054;SHT31;53960;51.826;5.850;2024-02-26T02:39:50;6.68;89.72
67054;SHT31;53960;51.826;5.850;2024-02-26T02:42:15;6.68;90.00
67054;SHT31;53960;51.826;5.850;2024-02-26T02:44:40;6.65;90.32
67054;SHT31;53960;51.826;5.850;2024-02-26T02:47:05;6.69;90.37
67054;SHT31;53960;51.826;5.850;2024-02-26T02:49:31;6.66;90.05
67054;SHT31;53960;51.826;5.850;2024-02-26T02:51:56;6.59;90.66
67054;SHT31;53960;51.826;5.850;2024-02-26T02:54:23;6.64;90.49
67054;SHT31;53960;51.826;5.850;2024-02-26T02:56:48;6.71;90.50
67054;SHT31;53960;51.826;5.850;2024-02-26T02:59:13;6.66;90.44
67054;SHT31;53960;51.826;5.850;2024-02-26T03:01:39;6.62;91.24
67054;SHT31;53960;51.826;5.850;2024-02-26T03:04:04;6.62;91.49
67054;SHT31;53960;51.826;5.850;2024-02-26T03:06:29;6.61;91.20
67054;SHT31;53960;51.826;5.850;2024-02-26T03:08:54;6.64;91.20
67054;SHT31;53960;51.826;5.850;2024-02-26T03:11:20;6.58;91.23
67054;SHT31;53960;51.826;5.850;2024-02-26T03:13:45;6.56;91.43
67054;SHT31;53960;51.826;5.850;2024-02-26T03:16:11;6.58;91.99
67054;SHT31;53960;51.826;5.850;2024-02-26T03:18:38;6.45;92.39
67054;SHT31;53960;51.826;5.850;2024-02-26T03:21:04;6.48;91.82
67054;SHT31;53960;51.826;5.850;2024-02-26T03:23:29;6.42;92.48
67054;SHT31;53960;51.826;5.850;2024-02-26T03:25:57;6.41;92.59
67054;SHT31;53960;51.826;5.850;2024-02-26T03:28:23;6.45;92.38
67054;SHT31;53960;51.826;5.850;2024-02-26T03:30:48;6.42;92.76
67054;SHT31;53960;51.826;5.850;2024-02-26T03:33:13;6.46;92.50
67054;SHT31;53960;51.826;5.850;2024-02-26T03:35:39;6.39;92.47
67054;SHT31;53960;51.826;5.850;2024-02-26T03:38:04;6.37;92.39
67054;SHT31;53960;51.826;5.850;2024-02-26T03:40:29;6.31;93.00
67054;SHT31;53960;51.826;5.850;2024-02-26T03:42:54;6.24;92.73
67054;SHT31;53960;51.826;5.850;2024-02-26T03:45:22;6.20;93.14
67054;SHT31;53960;51.826;5.850;2024-02-26T03:47:47;6.25;93.01
67054;SHT31;53960;51.826;5.850;2024-02-26T03:50:13;6.27;93.22
67054;SHT31;53960;51.826;5.850;2024-02-26T03:52:38;6.24;93.33
67054;SHT31;53960;51.826;5.850;2024-02-26T03:55:04;6.25;92.85
67054;SHT31;53960;51.826;5.850;2024-02-26T03:57:29;6.21;93.26
67054;SHT31;53960;51.826;5.850;2024-02-26T03:59:54;6.24;93.73
67054;SHT31;53960;51.826;5.850;2024-02-26T04:02:20;6.20;93.70
67054;SHT31;53960;51.826;5.850;2024-02-26T04:04:46;6.17;93.75
67054;SHT31;53960;51.826;5.850;2024-02-26T04:07:11;6.14;93.78
67054;SHT31;53960;51.826;5.850;2024-02-26T04:09:38;6.16;94.27
67054;SHT31;53960;51.826;5.850;2024-02-26T04:12:03;6.11;94.20
67054;SHT31;53960;51.826;5.850;2024-02-26T04:14:29;6.06;94.78
67054;SHT31;53960;51.826;5.850;2024-02-26T04:16:54;6.03;94.49
67054;SHT31;53960;51.826;5.850;2024-02-26T04:19:19;6.14;95.07
67054;SHT31;53960;51.826;5.850;2024-02-26T04:21:45;6.08;94.81
67054;SHT31;53960;51.826;5.850;2024-02-26T04:24:11;6.10;94.87
67054;SHT31;53960;51.826;5.850;2024-02-26T04:26:37;6.00;95.17
67054;SHT31;53960;51.826;5.850;2024-02-26T04:29:02;5.97;95.54
67054;SHT31;53960;51.826;5.850;2024-02-26T04:31:27;6.01;95.51
67054;SHT31;53960;51.826;5.850;2024-02-26T04:33:53;6.03;95.58
67054;SHT31;53960;51.826;5.850;2024-02-26T04:36:18;6.11;95.44
67054;SHT31;53960;51.826;5.850;2024-02-26T04:38:44;5.97;95.72
67054;SHT31;53960;51.826;5.850;2024-02-26T04:41:09;5.90;95.80
67054;SHT31;53960;51.826;5.850;2024-02-26T04:43:35;5.90;95.79
67054;SHT31;53960;51.826;5.850;2024-02-26T04:46:09;5.89;96.01
67054;SHT31;53960;51.826;5.850;2024-02-26T04:48:35;5.86;96.37
67054;SHT31;53960;51.826;5.850;2024-02-26T04:51:01;5.83;96.45
67054;SHT31;53960;51.826;5.850;2024-02-26T04:53:27;5.80;96.40
67054;SHT31;53960;51.826;5.850;2024-02-26T04:55:52;5.81;96.45
67054;SHT31;53960;51.826;5.850;2024-02-26T04:58:17;5.80;96.62
67054;SHT31;53960;51.826;5.850;2024-02-26T05:00:43;5.77;96.38
67054;SHT31;53960;51.826;5.850;2024-02-26T05:03:08;5.80;96.69
67054;SHT31;53960;51.826;5.850;2024-02-26T05:05:38;5.73;95.96
67054;SHT31;53960;51.826;5.850;2024-02-26T05:08:03;5.73;96.05
67054;SHT31;53960;51.826;5.850;2024-02-26T05:10:29;5.66;96.36
67054;SHT31;53960;51.826;5.850;2024-02-26T05:12:54;5.59;96.39
67054;SHT31;53960;51.826;5.850;2024-02-26T05:15:19;5.63;96.41
67054;SHT31;53960;51.826;5.850;2024-02-26T05:17:44;5.67;96.48
67054;SHT31;53960;51.826;5.850;2024-02-26T05:20:10;5.73;96.51
67054;SHT31;53960;51.826;5.850;2024-02-26T05:22:36;5.69;96.43
67054;SHT31;53960;51.826;5.850;2024-02-26T05:25:02;5.71;96.44
67054;SHT31;53960;51.826;5.850;2024-02-26T05:27:28;5.63;96.78
67054;SHT31;53960;51.826;5.850;2024-02-26T05:29:53;5.66;96.89
67054;SHT31;53960;51.826;5.850;2024-02-26T05:32:19;5.66;96.66
67054;SHT31;53960;51.826;5.850;2024-02-26T05:34:44;5.74;96.71
67054;SHT31;53960;51.826;5.850;2024-02-26T05:37:10;5.69;96.95
67054;SHT31;53960;51.826;5.850;2024-02-26T05:39:36;5.67;97.29
67054;SHT31;53960;51.826;5.850;2024-02-26T05:42:02;5.62;96.93
67054;SHT31;53960;51.826;5.850;2024-02-26T05:44:27;5.69;97.44
67054;SHT31;53960;51.826;5.850;2024-02-26T05:46:52;5.67;97.20
67054;SHT31;53960;51.826;5.850;2024-02-26T05:49:18;5.56;97.21
67054;SHT31;53960;51.826;5.850;2024-02-26T05:51:43;5.59;97.38
67054;SHT31;53960;51.826;5.850;2024-02-26T05:54:09;5.62;97.45
67054;SHT31;53960;51.826;5.850;2024-02-26T05:56:35;5.60;97.48
67054;SHT31;53960;51.826;5.850;2024-02-26T05:59:00;5.62;98.02
67054;SHT31;53960;51.826;5.850;2024-02-26T06:01:26;5.59;97.28
67054;SHT31;53960;51.826;5.850;2024-02-26T06:03:51;5.58;97.41
67054;SHT31;53960;51.826;5.850;2024-02-26T06:06:17;5.48;97.97
67054;SHT31;53960;51.826;5.850;2024-02-26T06:08:43;5.52;97.67
67054;SHT31;53960;51.826;5.850;2024-02-26T06:11:08;5.55;97.52
67054;SHT31;53960;51.826;5.850;2024-02-26T06:13:34;5.56;97.70
67054;SHT31;53960;51.826;5.850;2024-02-26T06:15:59;5.60;97.56
67054;SHT31;53960;51.826;5.850;2024-02-26T06:18:25;5.56;97.70
67054;SHT31;53960;51.826;5.850;2024-02-26T06:20:50;5.56;97.52
67054;SHT31;53960;51.826;5.850;2024-02-26T06:23:16;5.59;97.50
67054;SHT31;53960;51.826;5.850;2024-02-26T06:25:41;5.58;97.77
67054;SHT31;53960;51.826;5.850;2024-02-26T06:28:08;5.60;97.88
67054;SHT31;53960;51.826;5.850;2024-02-26T06:30:33;5.58;97.87
67054;SHT31;53960;51.826;5.850;2024-02-26T06:32:58;5.59;97.80
67054;SHT31;53960;51.826;5.850;2024-02-26T06:35:24;5.63;97.78
67054;SHT31;53960;51.826;5.850;2024-02-26T06:37:49;5.58;97.85
67054;SHT31;53960;51.826;5.850;2024-02-26T06:40:17;5.59;97.83
67054;SHT31;53960;51.826;5.850;2024-02-26T06:42:43;5.62;97.78
67054;SHT31;53960;51.826;5.850;2024-02-26T06:45:09;5.58;97.85
67054;SHT31;53960;51.826;5.850;2024-02-26T06:47:34;5.58;97.67
67054;SHT31;53960;51.826;5.850;2024-02-26T06:50:00;5.56;97.58
67054;SHT31;53960;51.826;5.850;2024-02-26T06:52:26;5.59;97.37
67054;SHT31;53960;51.826;5.850;2024-02-26T06:54:51;5.66;97.43
67054;SHT31;53960;51.826;5.850;2024-02-26T06:57:19;5.63;97.22
67054;SHT31;53960;51.826;5.850;2024-02-26T06:59:44;5.62;97.59
67054;SHT31;53960;51.826;5.850;2024-02-26T07:02:12;5.62;97.36
67054;SHT31;53960;51.826;5.850;2024-02-26T07:04:38;5.67;97.27
67054;SHT31;53960;51.826;5.850;2024-02-26T07:07:03;5.66;97.59
67054;SHT31;53960;51.826;5.850;2024-02-26T07:09:28;5.66;97.51
67054;SHT31;53960;51.826;5.850;2024-02-26T07:11:54;5.65;97.85
67054;SHT31;53960;51.826;5.850;2024-02-26T07:14:19;5.67;97.82
67054;SHT31;53960;51.826;5.850;2024-02-26T07:16:44;5.69;97.36
67054;SHT31;53960;51.826;5.850;2024-02-26T07:19:10;5.65;97.60
67054;SHT31;53960;51.826;5.850;2024-02-26T07:21:35;5.58;97.74
67054;SHT31;53960;51.826;5.850;2024-02-26T07:24:00;5.62;97.53
67054;SHT31;53960;51.826;5.850;2024-02-26T07:26:26;5.53;97.63
67054;SHT31;53960;51.826;5.850;2024-02-26T07:28:51;5.58;97.86
67054;SHT31;53960;51.826;5.850;2024-02-26T07:31:19;5.52;97.94
67054;SHT31;53960;51.826;5.850;2024-02-26T07:33:45;5.52;97.99
67054;SHT31;53960;51.826;5.850;2024-02-26T07:36:11;5.50;98.21
67054;SHT31;53960;51.826;5.850;2024-02-26T07:38:36;5.49;98.23
67054;SHT31;53960;51.826;5.850;2024-02-26T07:41:02;5.55;97.99
67054;SHT31;53960;51.826;5.850;2024-02-26T07:43:28;5.50;97.76
67054;SHT31;53960;51.826;5.850;2024-02-26T07:45:54;5.49;98.14
67054;SHT31;53960;51.826;5.850;2024-02-26T07:48:19;5.45;98.22
67054;SHT31;53960;51.826;5.850;2024-02-26T07:50:45;5.49;98.36
67054;SHT31;53960;51.826;5.850;2024-02-26T07:53:10;5.49;98.04
67054;SHT31;53960;51.826;5.850;2024-02-26T07:55:43;5.48;98.38
67054;SHT31;53960;51.826;5.850;2024-02-26T07:58:08;5.52;98.21
67054;SHT31;53960;51.826;5.850;2024-02-26T08:00:33;5.56;98.43
67054;SHT31;53960;51.826;5.850;2024-02-26T08:02:58;5.52;98.60
67054;SHT31;53960;51.826;5.850;2024-02-26T08:05:24;5.59;98.50
67054;SHT31;53960;51.826;5.850;2024-02-26T08:07:50;5.59;98.57
67054;SHT31;53960;51.826;5.850;2024-02-26T08:10:15;5.55;98.94
67054;SHT31;53960;51.826;5.850;2024-02-26T08:12:41;5.63;98.88
67054;SHT31;53960;51.826;5.850;2024-02-26T08:15:08;5.67;98.50
67054;SHT31;53960;51.826;5.850;2024-02-26T08:17:33;5.69;98.45
67054;SHT31;53960;51.826;5.850;2024-02-26T08:19:59;5.74;98.16
67054;SHT31;53960;51.826;5.850;2024-02-26T08:22:25;5.69;98.22
67054;SHT31;53960;51.826;5.850;2024-02-26T08:24:50;5.66;98.41
67054;SHT31;53960;51.826;5.850;2024-02-26T08:27:15;5.71;98.73
67054;SHT31;53960;51.826;5.850;2024-02-26T08:29:41;5.70;98.66
67054;SHT31;53960;51.826;5.850;2024-02-26T08:32:06;5.69;98.35
67054;SHT31;53960;51.826;5.850;2024-02-26T08:34:32;5.73;98.62
67054;SHT31;53960;51.826;5.850;2024-02-26T08:36:57;5.74;98.60
67054;SHT31;53960;51.826;5.850;2024-02-26T08:39:23;5.71;98.66
67054;SHT31;53960;51.826;5.850;2024-02-26T08:41:48;5.74;98.72
67054;SHT31;53960;51.826;5.850;2024-02-26T08:44:13;5.73;98.50
67054;SHT31;53960;51.826;5.850;2024-02-26T08:46:39;5.73;98.91
67054;SHT31;53960;51.826;5.850;2024-02-26T08:49:04;5.74;98.95
67054;SHT31;53960;51.826;5.850;2024-02-26T08:51:32;5.67;99.09
67054;SHT31;53960;51.826;5.850;2024-02-26T08:53:57;5.71;99.38
67054;SHT31;53960;51.826;5.850;2024-02-26T08:56:23;5.73;99.29
67054;SHT31;53960;51.826;5.850;2024-02-26T08:58:48;5.71;99.26
67054;SHT31;53960;51.826;5.850;2024-02-26T09:01:16;5.76;99.29
67054;SHT31;53960;51.826;5.850;2024-02-26T09:03:42;5.83;99.09
67054;SHT31;53960;51.826;5.850;2024-02-26T09:06:07;5.74;99.00
67054;SHT31;53960;51.826;5.850;2024-02-26T09:08:33;5.73;99.19
67054;SHT31;53960;51.826;5.850;2024-02-26T09:10:58;5.73;99.19
67054;SHT31;53960;51.826;5.850;2024-02-26T09:13:24;5.70;99.32
67054;SHT31;53960;51.826;5.850;2024-02-26T09:15:49;5.67;99.38
67054;SHT31;53960;51.826;5.850;2024-02-26T09:18:15;5.73;99.33
67054;SHT31;53960;51.826;5.850;2024-02-26T09:20:41;5.73;99.24
67054;SHT31;53960;51.826;5.850;2024-02-26T09:23:06;5.65;99.42
67054;SHT31;53960;51.826;5.850;2024-02-26T09:25:31;5.73;99.54
67054;SHT31;53960;51.826;5.850;2024-02-26T09:27:58;5.79;99.50
67054;SHT31;53960;51.826;5.850;2024-02-26T09:30:24;5.83;99.33
67054;SHT31;53960;51.826;5.850;2024-02-26T09:32:49;5.87;99.06
67054;SHT31;53960;51.826;5.850;2024-02-26T09:35:15;5.81;99.17
67054;SHT31;53960;51.826;5.850;2024-02-26T09:37:40;5.74;99.12
67054;SHT31;53960;51.826;5.850;2024-02-26T09:40:06;5.76;99.40
67054;SHT31;53960;51.826;5.850;2024-02-26T09:42:32;5.77;99.22
67054;SHT31;53960;51.826;5.850;2024-02-26T09:45:00;5.79;99.48
67054;SHT31;53960;51.826;5.850;2024-02-26T09:47:31;5.76;99.57
67054;SHT31;53960;51.826;5.850;2024-02-26T09:49:59;5.76;99.95
67054;SHT31;53960;51.826;5.850;2024-02-26T09:52:25;5.74;99.85
67054;SHT31;53960;51.826;5.850;2024-02-26T09:54:51;5.74;99.83
67054;SHT31;53960;51.826;5.850;2024-02-26T09:57:16;5.77;99.69
67054;SHT31;53960;51.826;5.850;2024-02-26T09:59:43;5.79;99.65
67054;SHT31;53960;51.826;5.850;2024-02-26T10:02:13;5.76;99.57
67054;SHT31;53960;51.826;5.850;2024-02-26T10:04:42;5.83;99.62
67054;SHT31;53960;51.826;5.850;2024-02-26T10:07:12;5.83;99.46
67054;SHT31;53960;51.826;5.850;2024-02-26T10:09:38;5.80;99.58
67054;SHT31;53960;51.826;5.850;2024-02-26T10:12:04;5.76;99.34
67054;SHT31;53960;51.826;5.850;2024-02-26T10:14:30;5.73;99.56
67054;SHT31;53960;51.826;5.850;2024-02-26T10:16:56;5.79;99.74
67054;SHT31;53960;51.826;5.850;2024-02-26T10:19:30;5.77;99.28
67054;SHT31;53960;51.826;5.850;2024-02-26T10:21:57;5.69;99.60
67054;SHT31;53960;51.826;5.850;2024-02-26T10:24:23;5.73;99.55
67054;SHT31;53960;51.826;5.850;2024-02-26T10:26:49;5.76;99.42
67054;SHT31;53960;51.826;5.850;2024-02-26T10:29:14;5.76;99.88
67054;SHT31;53960;51.826;5.850;2024-02-26T10:31:42;5.83;99.38
67054;SHT31;53960;51.826;5.850;2024-02-26T10:34:07;5.80;99.38
67054;SHT31;53960;51.826;5.850;2024-02-26T10:36:34;5.85;99.88
67054;SHT31;53960;51.826;5.850;2024-02-26T10:39:02;5.86;99.53
67054;SHT31;53960;51.826;5.850;2024-02-26T10:41:28;5.93;99.78
67054;SHT31;53960;51.826;5.850;2024-02-26T10:43:54;5.90;99.31
67054;SHT31;53960;51.826;5.850;2024-02-26T10:46:19;5.83;99.58
67054;SHT31;53960;51.826;5.850;2024-02-26T10:48:52;5.87;99.50
67054;SHT31;53960;51.826;5.850;2024-02-26T10:51:24;5.93;99.71
67054;SHT31;53960;51.826;5.850;2024-02-26T10:53:51;5.97;99.46
67054;SHT31;53960;51.826;5.850;2024-02-26T10:56:23;5.93;99.26
67054;SHT31;53960;51.826;5.850;2024-02-26T10:58:50;5.85;99.69
67054;SHT31;53960;51.826;5.850;2024-02-26T11:01:15;5.89;99.80
67054;SHT31;53960;51.826;5.850;2024-02-26T11:03:41;5.96;99.94
67054;SHT31;53960;51.826;5.850;2024-02-26T11:06:08;5.93;99.80
67054;SHT31;53960;51.826;5.850;2024-02-26T11:08:34;5.86;99.55
67054;SHT31;53960;51.826;5.850;2024-02-26T11:11:00;5.85;99.89
67054;SHT31;53960;51.826;5.850;2024-02-26T11:13:28;5.83;99.83
67054;SHT31;53960;51.826;5.850;2024-02-26T11:15:55;5.89;99.44
67054;SHT31;53960;51.826;5.850;2024-02-26T11:18:23;5.89;99.53
67054;SHT31;53960;51.826;5.850;2024-02-26T11:20:50;5.85;99.74
67054;SHT31;53960;51.826;5.850;2024-02-26T11:23:16;5.87;99.85
67054;SHT31;53960;51.826;5.850;2024-02-26T11:25:41;5.83;99.62
67054;SHT31;53960;51.826;5.850;2024-02-26T11:28:12;5.79;99.69
67054;SHT31;53960;51.826;5.850;2024-02-26T11:30:46;5.83;99.84
67054;SHT31;53960;51.826;5.850;2024-02-26T11:33:12;5.83;99.87
67054;SHT31;53960;51.826;5.850;2024-02-26T11:35:38;5.77;99.99
67054;SHT31;53960;51.826;5.850;2024-02-26T11:38:04;5.81;99.99
67054;SHT31;53960;51.826;5.850;2024-02-26T11:40:32;5.77;99.88
67054;SHT31;53960;51.826;5.850;2024-02-26T11:42:58;5.76;99.99
67054;SHT31;53960;51.826;5.850;2024-02-26T11:48:04;5.86;99.99
67054;SHT31;53960;51.826;5.850;2024-02-26T11:50:38;5.85;99.85
67054;SHT31;53960;51.826;5.850;2024-02-26T11:55:45;5.86;99.81
67054;SHT31;53960;51.826;5.850;2024-02-26T11:58:10;5.79;99.99
67054;SHT31;53960;51.826;5.850;2024-02-26T12:00:35;5.80;99.99
67054;SHT31;53960;51.826;5.850;2024-02-26T12:03:02;5.81;99.99
67054;SHT31;53960;51.826;5.850;2024-02-26T12:05:31;5.85;99.99
67054;SHT31;53960;51.826;5.850;2024-02-26T12:08:03;5.86;99.99
67054;SHT31;53960;51.826;5.850;2024-02-26T12:10:33;5.86;99.65
67054;SHT31;53960;51.826;5.850;2024-02-26T12:13:16;5.83;99.96
67054;SHT31;53960;51.826;5.850;2024-02-26T12:15:54;5.81;99.53
67054;SHT31;53960;51.826;5.850;2024-02-26T12:18:20;5.80;99.89
67054;SHT31;53960;51.826;5.850;2024-02-26T12:20:46;5.85;99.99
67054;SHT31;53960;51.826;5.850;2024-02-26T12:23:16;5.87;99.99
67054;SHT31;53960;51.826;5.850;2024-02-26T12:25:43;5.86;99.82
67054;SHT31;53960;51.826;5.850;2024-02-26T12:28:09;5.90;99.80
67054;SHT31;53960;51.826;5.850;2024-02-26T12:30:35;5.90;99.46
67054;SHT31;53960;51.826;5.850;2024-02-26T12:33:00;5.90;99.92
67054;SHT31;53960;51.826;5.850;2024-02-26T12:35:29;5.87;99.60
67054;SHT31;53960;51.826;5.850;2024-02-26T12:37:58;5.90;99.66
67054;SHT31;53960;51.826;5.850;2024-02-26T12:40:23;5.96;99.52
67054;SHT31;53960;51.826;5.850;2024-02-26T12:42:49;5.93;99.29
67054;SHT31;53960;51.826;5.850;2024-02-26T12:45:15;5.89;99.82
67054;SHT31;53960;51.826;5.850;2024-02-26T12:47:43;5.93;99.79
67054;SHT31;53960;51.826;5.850;2024-02-26T12:50:09;5.87;99.99
67054;SHT31;53960;51.826;5.850;2024-02-26T12:52:39;5.93;99.99
67054;SHT31;53960;51.826;5.850;2024-02-26T12:55:05;5.96;99.99
67054;SHT31;53960;51.826;5.850;2024-02-26T12:57:32;5.98;99.89
67054;SHT31;53960;51.826;5.850;2024-02-26T12:59:59;5.97;99.42
67054;SHT31;53960;51.826;5.850;2024-02-26T13:02:25;5.97;99.43
67054;SHT31;53960;51.826;5.850;2024-02-26T13:04:52;6.06;99.26
67054;SHT31;53960;51.826;5.850;2024-02-26T13:07:18;6.04;99.45
67054;SHT31;53960;51.826;5.850;2024-02-26T13:09:44;6.08;99.56
67054;SHT31;53960;51.826;5.850;2024-02-26T13:12:09;6.06;99.43
67054;SHT31;53960;51.826;5.850;2024-02-26T13:14:35;6.13;99.25
67054;SHT31;53960;51.826;5.850;2024-02-26T13:17:01;6.07;99.05
67054;SHT31;53960;51.826;5.850;2024-02-26T13:19:27;6.10;99.38
67054;SHT31;53960;51.826;5.850;2024-02-26T13:21:55;6.13;99.21
67054;SHT31;53960;51.826;5.850;2024-02-26T13:24:21;6.11;99.52
67054;SHT31;53960;51.826;5.850;2024-02-26T13:26:53;6.14;99.09
67054;SHT31;53960;51.826;5.850;2024-02-26T13:29:19;6.10;99.34
67054;SHT31;53960;51.826;5.850;2024-02-26T13:31:44;6.20;99.44
67054;SHT31;53960;51.826;5.850;2024-02-26T13:34:10;6.14;99.02
67054;SHT31;53960;51.826;5.850;2024-02-26T13:36:35;6.10;99.21
67054;SHT31;53960;51.826;5.850;2024-02-26T13:39:01;6.14;99.35
67054;SHT31;53960;51.826;5.850;2024-02-26T13:41:29;6.14;99.09
67054;SHT31;53960;51.826;5.850;2024-02-26T13:43:54;6.11;98.75
67054;SHT31;53960;51.826;5.850;2024-02-26T13:46:20;6.11;99.44
67054;SHT31;53960;51.826;5.850;2024-02-26T13:48:45;6.18;99.10
67054;SHT31;53960;51.826;5.850;2024-02-26T13:51:10;6.14;98.82
67054;SHT31;53960;51.826;5.850;2024-02-26T13:53:36;6.14;98.88
67054;SHT31;53960;51.826;5.850;2024-02-26T13:56:02;6.16;99.53
67054;SHT31;53960;51.826;5.850;2024-02-26T13:58:30;6.21;99.49
67054;SHT31;53960;51.826;5.850;2024-02-26T14:00:56;6.27;99.47
67054;SHT31;53960;51.826;5.850;2024-02-26T14:03:21;6.22;98.70
67054;SHT31;53960;51.826;5.850;2024-02-26T14:05:47;6.27;99.05
67054;SHT31;53960;51.826;5.850;2024-02-26T14:08:12;6.28;98.88
67054;SHT31;53960;51.826;5.850;2024-02-26T14:10:38;6.27;98.96
67054;SHT31;53960;51.826;5.850;2024-02-26T14:13:04;6.18;98.92
67054;SHT31;53960;51.826;5.850;2024-02-26T14:15:29;6.24;99.12
67054;SHT31;53960;51.826;5.850;2024-02-26T14:17:55;6.21;98.43
67054;SHT31;53960;51.826;5.850;2024-02-26T14:20:27;6.20;99.23
67054;SHT31;53960;51.826;5.850;2024-02-26T14:22:52;6.28;98.90
67054;SHT31;53960;51.826;5.850;2024-02-26T14:25:19;6.28;99.17
67054;SHT31;53960;51.826;5.850;2024-02-26T14:27:45;6.31;98.85
67054;SHT31;53960;51.826;5.850;2024-02-26T14:30:11;6.22;98.59
67054;SHT31;53960;51.826;5.850;2024-02-26T14:32:37;6.25;99.06
67054;SHT31;53960;51.826;5.850;2024-02-26T14:35:09;6.32;99.22
67054;SHT31;53960;51.826;5.850;2024-02-26T14:37:35;6.29;98.73
67054;SHT31;53960;51.826;5.850;2024-02-26T14:40:01;6.25;98.54
67054;SHT31;53960;51.826;5.850;2024-02-26T14:42:28;6.22;98.98
67054;SHT31;53960;51.826;5.850;2024-02-26T14:44:53;6.24;99.04
67054;SHT31;53960;51.826;5.850;2024-02-26T14:47:19;6.27;98.86
67054;SHT31;53960;51.826;5.850;2024-02-26T14:49:44;6.32;99.11
67054;SHT31;53960;51.826;5.850;2024-02-26T14:52:12;6.37;98.78
67054;SHT31;53960;51.826;5.850;2024-02-26T14:54:38;6.35;99.17
67054;SHT31;53960;51.826;5.850;2024-02-26T14:57:04;6.38;99.16
67054;SHT31;53960;51.826;5.850;2024-02-26T14:59:30;6.42;99.00
67054;SHT31;53960;51.826;5.850;2024-02-26T15:01:57;6.44;98.45
67054;SHT31;53960;51.826;5.850;2024-02-26T15:04:22;6.39;98.30
67054;SHT31;53960;51.826;5.850;2024-02-26T15:06:47;6.39;98.47
67054;SHT31;53960;51.826;5.850;2024-02-26T15:09:13;6.42;98.38
67054;SHT31;53960;51.826;5.850;2024-02-26T15:11:39;6.42;98.45
67054;SHT31;53960;51.826;5.850;2024-02-26T15:14:05;6.45;98.59
67054;SHT31;53960;51.826;5.850;2024-02-26T15:16:30;6.41;98.61
67054;SHT31;53960;51.826;5.850;2024-02-26T15:18:55;6.41;98.42
67054;SHT31;53960;51.826;5.850;2024-02-26T15:21:23;6.39;98.45
67054;SHT31;53960;51.826;5.850;2024-02-26T15:23:49;6.39;98.86
67054;SHT31;53960;51.826;5.850;2024-02-26T15:26:15;6.39;98.61
67054;SHT31;53960;51.826;5.850;2024-02-26T15:28:42;6.41;98.55
67054;SHT31;53960;51.826;5.850;2024-02-26T15:31:07;6.39;98.06
67054;SHT31;53960;51.826;5.850;2024-02-26T15:33:33;6.39;98.12
67054;SHT31;53960;51.826;5.850;2024-02-26T15:35:58;6.37;97.98
67054;SHT31;53960;51.826;5.850;2024-02-26T15:38:24;6.34;98.59
67054;SHT31;53960;51.826;5.850;2024-02-26T15:40:49;6.37;98.05
67054;SHT31;53960;51.826;5.850;2024-02-26T15:43:15;6.29;98.53